sensor_id;sensor_type;location;lat;lon;timestamp;temperature;humidity
36818;DHT22;22761;51.542;16.450;2022-07-29T00:01:16;14.35;65.46
36818;DHT22;22761;51.542;16.450;2022-07-29T00:03:43;14.33;65.71
36818;DHT22;22761;51.542;16.450;2022-07-29T00:06:11;14.27;65.91
36818;DHT22;22761;51.542;16.450;2022-07-29T00:08:38;14.22;65.77
36818;DHT22;22761;51.542;16.450;2022-07-29T00:11:05;14.22;65.68
36818;DHT22;22761;51.542;16.450;2022-07-29T00:13:32;14.20;65.59
36818;DHT22;22761;51.542;16.450;2022-07-29T00:15:59;14.18;65.69
36818;DHT22;22761;51.542;16.450;2022-07-29T00:18:26;14.14;65.40
36818;DHT22;22761;51.542;16.450;2022-07-29T00:20:54;14.11;65.41
36818;DHT22;22761;51.542;16.450;2022-07-29T00:23:21;14.10;65.41
36818;DHT22;22761;51.542;16.450;2022-07-29T00:25:48;14.05;65.22
36818;DHT22;22761;51.542;16.450;2022-07-29T00:28:15;14.03;65.11
36818;DHT22;22761;51.542;16.450;2022-07-29T00:30:42;13.98;65.23
36818;DHT22;22761;51.542;16.450;2022-07-29T00:33:10;13.96;64.93
36818;DHT22;22761;51.542;16.450;2022-07-29T00:35:37;13.89;65.06
36818;DHT22;22761;51.542;16.450;2022-07-29T00:38:17;13.90;65.18
36818;DHT22;22761;51.542;16.450;2022-07-29T00:40:44;13.86;65.32
36818;DHT22;22761;51.542;16.450;2022-07-29T00:43:13;13.83;65.54
36818;DHT22;22761;51.542;16.450;2022-07-29T00:45:42;13.82;65.62
36818;DHT22;22761;51.542;16.450;2022-07-29T00:48:09;13.83;64.70
36818;DHT22;22761;51.542;16.450;2022-07-29T00:50:37;13.77;65.06
36818;DHT22;22761;51.542;16.450;2022-07-29T00:53:07;13.76;65.35
36818;DHT22;22761;51.542;16.450;2022-07-29T00:55:35;13.76;65.12
36818;DHT22;22761;51.542;16.450;2022-07-29T00:58:03;13.75;65.02
36818;DHT22;22761;51.542;16.450;2022-07-29T01:00:30;13.73;65.00
36818;DHT22;22761;51.542;16.450;2022-07-29T01:02:58;13.73;65.48
36818;DHT22;22761;51.542;16.450;2022-07-29T01:05:27;13.69;65.55
36818;DHT22;22761;51.542;16.450;2022-07-29T01:07:57;13.66;65.42
36818;DHT22;22761;51.542;16.450;2022-07-29T01:10:25;13.62;65.73
36818;DHT22;22761;51.542;16.450;2022-07-29T01:12:54;13.60;66.10
36818;DHT22;22761;51.542;16.450;2022-07-29T01:15:22;13.56;66.15
36818;DHT22;22761;51.542;16.450;2022-07-29T01:23:57;13.51;66.49
36818;DHT22;22761;51.542;16.450;2022-07-29T01:27:04;13.46;66.54
36818;DHT22;22761;51.542;16.450;2022-07-29T01:29:45;13.42;66.73
36818;DHT22;22761;51.542;16.450;2022-07-29T01:32:15;13.42;67.05
36818;DHT22;22761;51.542;16.450;2022-07-29T01:37:44;13.38;67.25
36818;DHT22;22761;51.542;16.450;2022-07-29T01:40:33;13.32;67.27
36818;DHT22;22761;51.542;16.450;2022-07-29T01:43:06;13.30;67.33
36818;DHT22;22761;51.542;16.450;2022-07-29T01:45:58;13.27;67.52
36818;DHT22;22761;51.542;16.450;2022-07-29T01:48:51;13.24;67.38
36818;DHT22;22761;51.542;16.450;2022-07-29T01:51:23;13.24;67.43
36818;DHT22;22761;51.542;16.450;2022-07-29T01:56:38;13.20;67.48
36818;DHT22;22761;51.542;16.450;2022-07-29T01:59:08;13.18;67.68
36818;DHT22;22761;51.542;16.450;2022-07-29T02:01:36;13.15;67.75
36818;DHT22;22761;51.542;16.450;2022-07-29T02:04:06;13.11;67.75
36818;DHT22;22761;51.542;16.450;2022-07-29T02:06:35;13.08;67.79
36818;DHT22;22761;51.542;16.450;2022-07-29T02:09:04;13.07;68.04
36818;DHT22;22761;51.542;16.450;2022-07-29T02:11:34;13.03;68.23
36818;DHT22;22761;51.542;16.450;2022-07-29T02:14:03;13.02;68.37
36818;DHT22;22761;51.542;16.450;2022-07-29T02:16:31;12.97;68.69
36818;DHT22;22761;51.542;16.450;2022-07-29T02:19:02;12.95;68.75
36818;DHT22;22761;51.542;16.450;2022-07-29T02:21:30;12.90;68.86
36818;DHT22;22761;51.542;16.450;2022-07-29T02:24:01;12.90;68.93
36818;DHT22;22761;51.542;16.450;2022-07-29T02:26:29;12.89;68.87
36818;DHT22;22761;51.542;16.450;2022-07-29T02:28:59;12.84;69.19
36818;DHT22;22761;51.542;16.450;2022-07-29T02:31:33;12.80;68.99
36818;DHT22;22761;51.542;16.450;2022-07-29T02:34:06;12.78;68.94
36818;DHT22;22761;51.542;16.450;2022-07-29T02:36:30;12.73;69.30
36818;DHT22;22761;51.542;16.450;2022-07-29T02:38:58;12.72;69.51
36818;DHT22;22761;51.542;16.450;2022-07-29T02:41:35;12.69;69.48
36818;DHT22;22761;51.542;16.450;2022-07-29T02:44:12;12.68;69.69
36818;DHT22;22761;51.542;16.450;2022-07-29T02:46:58;12.65;70.04
36818;DHT22;22761;51.542;16.450;2022-07-29T02:57:47;12.58;70.42
36818;DHT22;22761;51.542;16.450;2022-07-29T03:00:15;12.53;70.34
36818;DHT22;22761;51.542;16.450;2022-07-29T03:02:45;12.53;70.46
36818;DHT22;22761;51.542;16.450;2022-07-29T03:05:17;12.55;70.34
36818;DHT22;22761;51.542;16.450;2022-07-29T03:07:54;12.51;70.34
36818;DHT22;22761;51.542;16.450;2022-07-29T03:10:16;12.53;70.62
36818;DHT22;22761;51.542;16.450;2022-07-29T03:12:44;12.52;70.54
36818;DHT22;22761;51.542;16.450;2022-07-29T03:15:12;12.53;70.66
36818;DHT22;22761;51.542;16.450;2022-07-29T03:17:42;12.49;70.82
36818;DHT22;22761;51.542;16.450;2022-07-29T03:20:11;12.51;70.56
36818;DHT22;22761;51.542;16.450;2022-07-29T03:22:43;12.48;70.87
36818;DHT22;22761;51.542;16.450;2022-07-29T03:25:15;12.45;70.97
36818;DHT22;22761;51.542;16.450;2022-07-29T03:27:43;12.47;71.11
36818;DHT22;22761;51.542;16.450;2022-07-29T03:30:13;12.44;71.53
36818;DHT22;22761;51.542;16.450;2022-07-29T03:32:41;12.41;71.60
36818;DHT22;22761;51.542;16.450;2022-07-29T03:35:08;12.41;71.80
36818;DHT22;22761;51.542;16.450;2022-07-29T03:37:35;12.42;72.01
36818;DHT22;22761;51.542;16.450;2022-07-29T03:40:06;12.42;72.13
36818;DHT22;22761;51.542;16.450;2022-07-29T03:42:38;12.45;72.48
36818;DHT22;22761;51.542;16.450;2022-07-29T03:45:09;12.49;72.84
36818;DHT22;22761;51.542;16.450;2022-07-29T03:47:42;12.52;73.31
36818;DHT22;22761;51.542;16.450;2022-07-29T03:50:12;12.52;73.44
36818;DHT22;22761;51.542;16.450;2022-07-29T03:52:40;12.55;73.72
36818;DHT22;22761;51.542;16.450;2022-07-29T03:55:09;12.61;74.06
36818;DHT22;22761;51.542;16.450;2022-07-29T03:57:37;12.65;74.23
36818;DHT22;22761;51.542;16.450;2022-07-29T04:00:08;12.66;74.38
36818;DHT22;22761;51.542;16.450;2022-07-29T04:02:36;12.70;73.27
36818;DHT22;22761;51.542;16.450;2022-07-29T04:05:03;12.76;74.54
36818;DHT22;22761;51.542;16.450;2022-07-29T04:07:31;12.82;74.96
36818;DHT22;22761;51.542;16.450;2022-07-29T04:09:58;12.89;75.05
36818;DHT22;22761;51.542;16.450;2022-07-29T04:12:25;12.93;74.93
36818;DHT22;22761;51.542;16.450;2022-07-29T04:14:52;13.00;75.15
36818;DHT22;22761;51.542;16.450;2022-07-29T04:17:19;13.10;75.41
36818;DHT22;22761;51.542;16.450;2022-07-29T04:19:46;13.21;75.52
36818;DHT22;22761;51.542;16.450;2022-07-29T04:22:13;13.30;75.48
36818;DHT22;22761;51.542;16.450;2022-07-29T04:24:40;13.38;75.63
36818;DHT22;22761;51.542;16.450;2022-07-29T04:27:07;13.48;75.77
36818;DHT22;22761;51.542;16.450;2022-07-29T04:29:34;13.60;76.00
36818;DHT22;22761;51.542;16.450;2022-07-29T04:32:01;13.73;76.05
36818;DHT22;22761;51.542;16.450;2022-07-29T04:34:28;13.87;76.02
36818;DHT22;22761;51.542;16.450;2022-07-29T04:36:55;14.00;75.79
36818;DHT22;22761;51.542;16.450;2022-07-29T04:39:22;14.15;75.05
36818;DHT22;22761;51.542;16.450;2022-07-29T04:41:50;14.28;73.59
36818;DHT22;22761;51.542;16.450;2022-07-29T04:44:17;14.47;72.74
36818;DHT22;22761;51.542;16.450;2022-07-29T04:46:44;14.63;72.06
36818;DHT22;22761;51.542;16.450;2022-07-29T04:49:11;14.80;71.77
36818;DHT22;22761;51.542;16.450;2022-07-29T04:51:39;14.94;71.56
36818;DHT22;22761;51.542;16.450;2022-07-29T04:54:06;15.11;70.66
36818;DHT22;22761;51.542;16.450;2022-07-29T04:56:34;15.28;70.66
36818;DHT22;22761;51.542;16.450;2022-07-29T04:59:01;15.41;70.31
36818;DHT22;22761;51.542;16.450;2022-07-29T05:01:27;15.56;70.05
36818;DHT22;22761;51.542;16.450;2022-07-29T05:03:54;15.72;69.44
36818;DHT22;22761;51.542;16.450;2022-07-29T05:06:21;15.83;68.48
36818;DHT22;22761;51.542;16.450;2022-07-29T05:08:49;15.97;67.74
36818;DHT22;22761;51.542;16.450;2022-07-29T05:11:16;16.12;67.05
36818;DHT22;22761;51.542;16.450;2022-07-29T05:13:43;16.27;67.01
36818;DHT22;22761;51.542;16.450;2022-07-29T05:16:10;16.38;66.96
36818;DHT22;22761;51.542;16.450;2022-07-29T05:18:37;16.52;67.08
36818;DHT22;22761;51.542;16.450;2022-07-29T05:21:04;16.63;67.05
36818;DHT22;22761;51.542;16.450;2022-07-29T05:23:31;16.74;66.38
36818;DHT22;22761;51.542;16.450;2022-07-29T05:25:58;16.86;65.73
36818;DHT22;22761;51.542;16.450;2022-07-29T05:28:25;16.98;65.85
36818;DHT22;22761;51.542;16.450;2022-07-29T05:30:52;17.08;65.07
36818;DHT22;22761;51.542;16.450;2022-07-29T05:33:20;17.18;64.55
36818;DHT22;22761;51.542;16.450;2022-07-29T05:35:47;17.26;64.73
36818;DHT22;22761;51.542;16.450;2022-07-29T05:38:14;17.36;64.38
36818;DHT22;22761;51.542;16.450;2022-07-29T05:40:41;17.43;64.50
36818;DHT22;22761;51.542;16.450;2022-07-29T05:43:08;17.56;64.83
36818;DHT22;22761;51.542;16.450;2022-07-29T05:45:35;17.64;64.12
36818;DHT22;22761;51.542;16.450;2022-07-29T05:48:02;17.73;64.33
36818;DHT22;22761;51.542;16.450;2022-07-29T05:50:29;17.78;64.21
36818;DHT22;22761;51.542;16.450;2022-07-29T05:52:56;17.85;64.08
36818;DHT22;22761;51.542;16.450;2022-07-29T05:55:23;17.88;63.82
36818;DHT22;22761;51.542;16.450;2022-07-29T05:57:52;17.95;63.47
36818;DHT22;22761;51.542;16.450;2022-07-29T06:00:19;18.00;63.76
36818;DHT22;22761;51.542;16.450;2022-07-29T06:02:46;18.07;63.79
36818;DHT22;22761;51.542;16.450;2022-07-29T06:05:13;18.12;63.31
36818;DHT22;22761;51.542;16.450;2022-07-29T06:07:41;18.12;63.27
36818;DHT22;22761;51.542;16.450;2022-07-29T06:10:08;18.16;63.24
36818;DHT22;22761;51.542;16.450;2022-07-29T06:12:35;18.19;63.50
36818;DHT22;22761;51.542;16.450;2022-07-29T06:15:04;18.25;63.62
36818;DHT22;22761;51.542;16.450;2022-07-29T06:17:32;18.30;62.64
36818;DHT22;22761;51.542;16.450;2022-07-29T06:19:59;18.42;60.99
36818;DHT22;22761;51.542;16.450;2022-07-29T06:22:26;18.52;60.64
36818;DHT22;22761;51.542;16.450;2022-07-29T06:24:53;18.66;60.01
36818;DHT22;22761;51.542;16.450;2022-07-29T06:27:20;18.81;60.08
36818;DHT22;22761;51.542;16.450;2022-07-29T06:29:47;18.98;58.74
36818;DHT22;22761;51.542;16.450;2022-07-29T06:32:14;19.12;58.14
36818;DHT22;22761;51.542;16.450;2022-07-29T06:34:41;19.25;58.04
36818;DHT22;22761;51.542;16.450;2022-07-29T06:37:09;19.37;56.85
36818;DHT22;22761;51.542;16.450;2022-07-29T06:39:36;19.46;56.38
36818;DHT22;22761;51.542;16.450;2022-07-29T06:42:06;19.57;55.47
36818;DHT22;22761;51.542;16.450;2022-07-29T06:44:33;19.68;55.59
36818;DHT22;22761;51.542;16.450;2022-07-29T06:47:01;19.78;54.99
36818;DHT22;22761;51.542;16.450;2022-07-29T06:49:29;19.89;55.10
36818;DHT22;22761;51.542;16.450;2022-07-29T06:51:56;20.02;53.71
36818;DHT22;22761;51.542;16.450;2022-07-29T06:54:23;20.11;55.09
36818;DHT22;22761;51.542;16.450;2022-07-29T06:56:50;20.19;54.07
36818;DHT22;22761;51.542;16.450;2022-07-29T06:59:17;20.29;55.31
36818;DHT22;22761;51.542;16.450;2022-07-29T07:01:44;20.37;54.10
36818;DHT22;22761;51.542;16.450;2022-07-29T07:04:11;20.47;54.17
36818;DHT22;22761;51.542;16.450;2022-07-29T07:06:40;20.54;54.22
36818;DHT22;22761;51.542;16.450;2022-07-29T07:09:07;20.60;53.85
36818;DHT22;22761;51.542;16.450;2022-07-29T07:11:34;20.67;53.10
36818;DHT22;22761;51.542;16.450;2022-07-29T07:14:02;20.74;53.55
36818;DHT22;22761;51.542;16.450;2022-07-29T07:16:29;20.82;52.83
36818;DHT22;22761;51.542;16.450;2022-07-29T07:18:56;20.89;52.38
36818;DHT22;22761;51.542;16.450;2022-07-29T07:21:23;20.96;53.27
36818;DHT22;22761;51.542;16.450;2022-07-29T07:23:50;21.05;52.58
36818;DHT22;22761;51.542;16.450;2022-07-29T07:26:17;21.13;52.39
36818;DHT22;22761;51.542;16.450;2022-07-29T07:28:44;21.23;52.70
36818;DHT22;22761;51.542;16.450;2022-07-29T07:31:11;21.32;51.89
36818;DHT22;22761;51.542;16.450;2022-07-29T07:33:40;21.41;51.38
36818;DHT22;22761;51.542;16.450;2022-07-29T07:36:07;21.50;50.97
36818;DHT22;22761;51.542;16.450;2022-07-29T07:38:35;21.57;50.56
36818;DHT22;22761;51.542;16.450;2022-07-29T07:41:02;21.64;50.45
36818;DHT22;22761;51.542;16.450;2022-07-29T07:43:29;21.69;51.09
36818;DHT22;22761;51.542;16.450;2022-07-29T07:45:57;21.78;50.64
36818;DHT22;22761;51.542;16.450;2022-07-29T07:48:24;21.82;50.95
36818;DHT22;22761;51.542;16.450;2022-07-29T07:50:51;21.86;50.02
36818;DHT22;22761;51.542;16.450;2022-07-29T07:53:18;21.89;50.88
36818;DHT22;22761;51.542;16.450;2022-07-29T07:55:45;21.92;50.17
36818;DHT22;22761;51.542;16.450;2022-07-29T07:58:13;21.96;49.76
36818;DHT22;22761;51.542;16.450;2022-07-29T08:00:40;21.95;49.68
36818;DHT22;22761;51.542;16.450;2022-07-29T08:03:07;21.98;49.26
36818;DHT22;22761;51.542;16.450;2022-07-29T08:05:35;21.94;49.71
36818;DHT22;22761;51.542;16.450;2022-07-29T08:08:02;21.91;49.60
36818;DHT22;22761;51.542;16.450;2022-07-29T08:10:29;21.88;49.70
36818;DHT22;22761;51.542;16.450;2022-07-29T08:13:15;21.91;49.69
36818;DHT22;22761;51.542;16.450;2022-07-29T08:15:42;21.92;49.58
36818;DHT22;22761;51.542;16.450;2022-07-29T08:18:13;22.01;49.59
36818;DHT22;22761;51.542;16.450;2022-07-29T08:20:40;22.11;50.24
36818;DHT22;22761;51.542;16.450;2022-07-29T08:23:08;22.29;50.32
36818;DHT22;22761;51.542;16.450;2022-07-29T08:25:37;22.47;50.23
36818;DHT22;22761;51.542;16.450;2022-07-29T08:28:06;22.70;48.42
36818;DHT22;22761;51.542;16.450;2022-07-29T08:30:34;22.91;47.31
36818;DHT22;22761;51.542;16.450;2022-07-29T08:33:01;23.07;47.60
36818;DHT22;22761;51.542;16.450;2022-07-29T08:35:29;23.26;47.15
36818;DHT22;22761;51.542;16.450;2022-07-29T08:37:56;23.41;46.52
36818;DHT22;22761;51.542;16.450;2022-07-29T08:40:23;23.54;47.07
36818;DHT22;22761;51.542;16.450;2022-07-29T08:42:51;23.71;46.63
36818;DHT22;22761;51.542;16.450;2022-07-29T08:45:18;23.82;45.36
36818;DHT22;22761;51.542;16.450;2022-07-29T08:47:47;24.00;45.54
36818;DHT22;22761;51.542;16.450;2022-07-29T08:50:14;24.20;45.19
36818;DHT22;22761;51.542;16.450;2022-07-29T08:52:41;24.36;45.47
36818;DHT22;22761;51.542;16.450;2022-07-29T08:55:10;24.55;44.67
36818;DHT22;22761;51.542;16.450;2022-07-29T08:57:39;24.74;43.18
36818;DHT22;22761;51.542;16.450;2022-07-29T09:00:07;24.89;44.20
36818;DHT22;22761;51.542;16.450;2022-07-29T09:02:39;25.10;43.75
36818;DHT22;22761;51.542;16.450;2022-07-29T09:05:08;25.25;42.48
36818;DHT22;22761;51.542;16.450;2022-07-29T09:07:36;25.45;42.60
36818;DHT22;22761;51.542;16.450;2022-07-29T09:10:06;25.72;42.07
36818;DHT22;22761;51.542;16.450;2022-07-29T09:12:33;25.99;39.96
36818;DHT22;22761;51.542;16.450;2022-07-29T09:15:00;26.20;39.85
36818;DHT22;22761;51.542;16.450;2022-07-29T09:17:47;26.39;39.80
36818;DHT22;22761;51.542;16.450;2022-07-29T09:20:20;26.58;38.63
36818;DHT22;22761;51.542;16.450;2022-07-29T09:22:50;26.68;38.66
36818;DHT22;22761;51.542;16.450;2022-07-29T09:25:37;26.81;38.88
36818;DHT22;22761;51.542;16.450;2022-07-29T09:28:09;26.91;40.19
36818;DHT22;22761;51.542;16.450;2022-07-29T09:30:55;27.03;39.16
36818;DHT22;22761;51.542;16.450;2022-07-29T09:33:32;27.17;38.66
36818;DHT22;22761;51.542;16.450;2022-07-29T09:36:05;27.27;38.43
36818;DHT22;22761;51.542;16.450;2022-07-29T09:38:34;27.33;38.71
36818;DHT22;22761;51.542;16.450;2022-07-29T09:41:04;27.40;38.95
36818;DHT22;22761;51.542;16.450;2022-07-29T09:43:31;27.48;38.21
36818;DHT22;22761;51.542;16.450;2022-07-29T09:46:12;27.57;37.81
36818;DHT22;22761;51.542;16.450;2022-07-29T09:48:40;27.57;37.65
36818;DHT22;22761;51.542;16.450;2022-07-29T09:51:18;27.60;37.81
36818;DHT22;22761;51.542;16.450;2022-07-29T09:53:47;27.68;38.19
36818;DHT22;22761;51.542;16.450;2022-07-29T09:56:14;27.78;37.86
36818;DHT22;22761;51.542;16.450;2022-07-29T09:58:41;27.86;36.72
36818;DHT22;22761;51.542;16.450;2022-07-29T10:01:08;27.93;36.97
36818;DHT22;22761;51.542;16.450;2022-07-29T10:03:52;28.02;36.66
36818;DHT22;22761;51.542;16.450;2022-07-29T10:06:20;28.16;36.15
36818;DHT22;22761;51.542;16.450;2022-07-29T10:08:47;28.20;36.18
36818;DHT22;22761;51.542;16.450;2022-07-29T10:11:18;28.19;37.10
36818;DHT22;22761;51.542;16.450;2022-07-29T10:13:48;28.23;36.64
36818;DHT22;22761;51.542;16.450;2022-07-29T10:16:16;28.20;37.29
36818;DHT22;22761;51.542;16.450;2022-07-29T10:18:43;28.27;36.12
36818;DHT22;22761;51.542;16.450;2022-07-29T10:21:11;28.48;36.32
36818;DHT22;22761;51.542;16.450;2022-07-29T10:23:40;28.81;36.80
36818;DHT22;22761;51.542;16.450;2022-07-29T10:26:08;29.23;34.38
36818;DHT22;22761;51.542;16.450;2022-07-29T10:28:36;29.62;33.12
36818;DHT22;22761;51.542;16.450;2022-07-29T10:31:06;30.02;32.95
36818;DHT22;22761;51.542;16.450;2022-07-29T10:33:51;30.30;32.13
36818;DHT22;22761;51.542;16.450;2022-07-29T10:36:57;30.38;31.44
36818;DHT22;22761;51.542;16.450;2022-07-29T10:40:06;30.23;32.33
36818;DHT22;22761;51.542;16.450;2022-07-29T10:42:32;30.07;32.70
36818;DHT22;22761;51.542;16.450;2022-07-29T10:45:03;30.00;32.56
36818;DHT22;22761;51.542;16.450;2022-07-29T10:47:30;29.93;33.25
36818;DHT22;22761;51.542;16.450;2022-07-29T10:50:00;29.99;32.88
36818;DHT22;22761;51.542;16.450;2022-07-29T10:52:54;29.88;32.91
36818;DHT22;22761;51.542;16.450;2022-07-29T10:55:37;29.85;32.54
36818;DHT22;22761;51.542;16.450;2022-07-29T10:58:21;29.91;32.68
36818;DHT22;22761;51.542;16.450;2022-07-29T11:00:53;30.19;32.98
36818;DHT22;22761;51.542;16.450;2022-07-29T11:03:46;30.43;32.42
36818;DHT22;22761;51.542;16.450;2022-07-29T11:06:14;30.78;32.04
36818;DHT22;22761;51.542;16.450;2022-07-29T11:08:42;31.22;31.29
36818;DHT22;22761;51.542;16.450;2022-07-29T11:11:32;31.69;30.51
36818;DHT22;22761;51.542;16.450;2022-07-29T11:14:00;31.91;29.69
36818;DHT22;22761;51.542;16.450;2022-07-29T11:16:58;32.10;28.83
36818;DHT22;22761;51.542;16.450;2022-07-29T11:19:19;32.20;28.68
36818;DHT22;22761;51.542;16.450;2022-07-29T11:21:47;32.46;28.18
36818;DHT22;22761;51.542;16.450;2022-07-29T11:24:21;32.60;28.18
36818;DHT22;22761;51.542;16.450;2022-07-29T11:27:17;32.84;26.69
36818;DHT22;22761;51.542;16.450;2022-07-29T11:29:54;33.16;27.99
36818;DHT22;22761;51.542;16.450;2022-07-29T11:32:23;33.46;26.42
36818;DHT22;22761;51.542;16.450;2022-07-29T11:37:40;33.63;27.17
36818;DHT22;22761;51.542;16.450;2022-07-29T11:40:10;33.54;27.59
36818;DHT22;22761;51.542;16.450;2022-07-29T11:42:40;33.68;26.49
36818;DHT22;22761;51.542;16.450;2022-07-29T11:45:22;33.80;27.09
36818;DHT22;22761;51.542;16.450;2022-07-29T11:47:52;33.84;26.13
36818;DHT22;22761;51.542;16.450;2022-07-29T11:50:35;33.74;26.79
36818;DHT22;22761;51.542;16.450;2022-07-29T11:53:10;33.54;25.96
36818;DHT22;22761;51.542;16.450;2022-07-29T11:55:40;33.19;26.69
36818;DHT22;22761;51.542;16.450;2022-07-29T11:58:08;32.71;27.17
36818;DHT22;22761;51.542;16.450;2022-07-29T12:00:45;32.46;27.61
36818;DHT22;22761;51.542;16.450;2022-07-29T12:03:10;32.58;27.72
36818;DHT22;22761;51.542;16.450;2022-07-29T12:05:44;32.91;27.10
36818;DHT22;22761;51.542;16.450;2022-07-29T12:08:15;32.98;26.78
36818;DHT22;22761;51.542;16.450;2022-07-29T12:10:46;32.77;27.37
36818;DHT22;22761;51.542;16.450;2022-07-29T12:13:17;32.84;27.89
36818;DHT22;22761;51.542;16.450;2022-07-29T12:15:56;33.04;27.64
36818;DHT22;22761;51.542;16.450;2022-07-29T12:18:24;33.26;27.42
36818;DHT22;22761;51.542;16.450;2022-07-29T12:21:01;33.44;27.04
36818;DHT22;22761;51.542;16.450;2022-07-29T12:23:34;33.64;26.89
36818;DHT22;22761;51.542;16.450;2022-07-29T12:26:06;33.72;27.78
36818;DHT22;22761;51.542;16.450;2022-07-29T12:28:38;33.97;26.45
36818;DHT22;22761;51.542;16.450;2022-07-29T12:31:05;33.60;25.89
36818;DHT22;22761;51.542;16.450;2022-07-29T12:33:32;33.18;27.50
36818;DHT22;22761;51.542;16.450;2022-07-29T12:36:02;33.02;27.52
36818;DHT22;22761;51.542;16.450;2022-07-29T12:38:30;32.86;27.88
36818;DHT22;22761;51.542;16.450;2022-07-29T12:40:58;32.37;27.94
36818;DHT22;22761;51.542;16.450;2022-07-29T12:43:26;32.06;28.85
36818;DHT22;22761;51.542;16.450;2022-07-29T12:45:56;31.84;29.36
36818;DHT22;22761;51.542;16.450;2022-07-29T12:48:38;31.72;29.82
36818;DHT22;22761;51.542;16.450;2022-07-29T12:51:07;31.64;29.40
36818;DHT22;22761;51.542;16.450;2022-07-29T12:53:37;31.64;30.26
36818;DHT22;22761;51.542;16.450;2022-07-29T12:56:05;31.71;29.86
36818;DHT22;22761;51.542;16.450;2022-07-29T12:58:39;31.78;29.84
36818;DHT22;22761;51.542;16.450;2022-07-29T13:01:16;31.93;29.59
36818;DHT22;22761;51.542;16.450;2022-07-29T13:03:52;31.96;29.92
36818;DHT22;22761;51.542;16.450;2022-07-29T13:06:41;31.96;30.08
36818;DHT22;22761;51.542;16.450;2022-07-29T13:09:20;31.89;28.91
36818;DHT22;22761;51.542;16.450;2022-07-29T13:11:52;31.86;29.83
36818;DHT22;22761;51.542;16.450;2022-07-29T13:14:38;31.92;29.51
36818;DHT22;22761;51.542;16.450;2022-07-29T13:19:49;32.00;29.73
36818;DHT22;22761;51.542;16.450;2022-07-29T13:22:24;31.91;29.81
36818;DHT22;22761;51.542;16.450;2022-07-29T13:24:57;31.81;30.23
36818;DHT22;22761;51.542;16.450;2022-07-29T13:27:27;31.65;30.07
36818;DHT22;22761;51.542;16.450;2022-07-29T13:29:58;31.57;30.69
36818;DHT22;22761;51.542;16.450;2022-07-29T13:32:27;31.50;30.11
36818;DHT22;22761;51.542;16.450;2022-07-29T13:34:57;31.31;30.76
36818;DHT22;22761;51.542;16.450;2022-07-29T13:37:24;31.13;30.95
36818;DHT22;22761;51.542;16.450;2022-07-29T13:39:52;30.90;31.08
36818;DHT22;22761;51.542;16.450;2022-07-29T13:42:22;30.65;30.94
36818;DHT22;22761;51.542;16.450;2022-07-29T13:44:49;30.40;32.18
36818;DHT22;22761;51.542;16.450;2022-07-29T13:47:20;30.17;32.51
36818;DHT22;22761;51.542;16.450;2022-07-29T13:49:48;29.98;32.03
36818;DHT22;22761;51.542;16.450;2022-07-29T13:52:15;29.76;32.74
36818;DHT22;22761;51.542;16.450;2022-07-29T13:54:43;29.57;33.07
36818;DHT22;22761;51.542;16.450;2022-07-29T13:57:11;29.47;32.80
36818;DHT22;22761;51.542;16.450;2022-07-29T13:59:45;29.40;33.38
36818;DHT22;22761;51.542;16.450;2022-07-29T14:02:12;29.29;33.75
36818;DHT22;22761;51.542;16.450;2022-07-29T14:04:40;29.17;33.70
36818;DHT22;22761;51.542;16.450;2022-07-29T14:07:07;29.14;35.25
36818;DHT22;22761;51.542;16.450;2022-07-29T14:09:34;29.07;34.04
36818;DHT22;22761;51.542;16.450;2022-07-29T14:12:01;29.02;34.09
36818;DHT22;22761;51.542;16.450;2022-07-29T14:14:29;28.92;34.06
36818;DHT22;22761;51.542;16.450;2022-07-29T14:16:59;28.85;34.14
36818;DHT22;22761;51.542;16.450;2022-07-29T14:19:27;28.77;34.29
36818;DHT22;22761;51.542;16.450;2022-07-29T14:21:54;28.72;34.01
36818;DHT22;22761;51.542;16.450;2022-07-29T14:24:23;28.65;35.18
36818;DHT22;22761;51.542;16.450;2022-07-29T14:26:50;28.54;34.51
36818;DHT22;22761;51.542;16.450;2022-07-29T14:29:17;28.47;34.82
36818;DHT22;22761;51.542;16.450;2022-07-29T14:31:45;28.37;34.87
36818;DHT22;22761;51.542;16.450;2022-07-29T14:34:12;28.30;34.82
36818;DHT22;22761;51.542;16.450;2022-07-29T14:36:39;28.22;35.21
36818;DHT22;22761;51.542;16.450;2022-07-29T14:39:07;28.18;35.69
36818;DHT22;22761;51.542;16.450;2022-07-29T14:41:34;28.16;35.77
36818;DHT22;22761;51.542;16.450;2022-07-29T14:44:01;28.12;35.67
36818;DHT22;22761;51.542;16.450;2022-07-29T14:46:28;28.12;36.36
36818;DHT22;22761;51.542;16.450;2022-07-29T14:48:55;28.20;35.78
36818;DHT22;22761;51.542;16.450;2022-07-29T14:51:22;28.24;35.63
36818;DHT22;22761;51.542;16.450;2022-07-29T14:53:49;28.27;35.66
36818;DHT22;22761;51.542;16.450;2022-07-29T14:56:16;28.29;35.99
36818;DHT22;22761;51.542;16.450;2022-07-29T14:58:44;28.33;35.13
36818;DHT22;22761;51.542;16.450;2022-07-29T15:01:11;28.43;36.51
36818;DHT22;22761;51.542;16.450;2022-07-29T15:03:38;28.47;34.93
36818;DHT22;22761;51.542;16.450;2022-07-29T15:06:05;28.57;34.96
36818;DHT22;22761;51.542;16.450;2022-07-29T15:08:32;28.60;34.74
36818;DHT22;22761;51.542;16.450;2022-07-29T15:10:59;28.60;35.07
36818;DHT22;22761;51.542;16.450;2022-07-29T15:13:27;28.52;35.12
36818;DHT22;22761;51.542;16.450;2022-07-29T15:15:54;28.46;34.77
36818;DHT22;22761;51.542;16.450;2022-07-29T15:18:22;28.41;35.35
36818;DHT22;22761;51.542;16.450;2022-07-29T15:20:49;28.29;36.15
36818;DHT22;22761;51.542;16.450;2022-07-29T15:23:16;28.20;35.47
36818;DHT22;22761;51.542;16.450;2022-07-29T15:25:43;28.16;35.57
36818;DHT22;22761;51.542;16.450;2022-07-29T15:28:10;28.15;35.66
36818;DHT22;22761;51.542;16.450;2022-07-29T15:30:38;28.19;35.65
36818;DHT22;22761;51.542;16.450;2022-07-29T15:33:09;28.33;35.41
36818;DHT22;22761;51.542;16.450;2022-07-29T15:35:38;28.51;35.31
36818;DHT22;22761;51.542;16.450;2022-07-29T15:38:05;28.72;35.42
36818;DHT22;22761;51.542;16.450;2022-07-29T15:40:33;28.89;35.08
36818;DHT22;22761;51.542;16.450;2022-07-29T15:43:04;29.05;35.23
36818;DHT22;22761;51.542;16.450;2022-07-29T15:45:38;29.19;33.86
36818;DHT22;22761;51.542;16.450;2022-07-29T15:48:06;29.27;34.74
36818;DHT22;22761;51.542;16.450;2022-07-29T15:50:34;29.34;33.92
36818;DHT22;22761;51.542;16.450;2022-07-29T15:53:01;29.36;33.82
36818;DHT22;22761;51.542;16.450;2022-07-29T15:55:29;29.25;34.11
36818;DHT22;22761;51.542;16.450;2022-07-29T15:57:56;29.09;34.63